Terminal Aerodrome Forecast
Issued by NWS Anchorage, AK

Home | Current Version | Previous Version | Text Only | Print | Product List | Glossary On
Versions: 1 2 3 4 5 6 7 8 9 10 11 12 13 14 15 16 17 18 19 20 21 22 23 24 25 26 27 28 29 30 31 32 33 34
000
FTAK31 PANC 280520
TAFANC
TAF
PANC 280520Z 2806/2912 31008KT P6SM FEW050 SCT120 BKN200
      TEMPO 2806/2810 31010G18KT
     FM281200 36006KT P6SM SCT200
     FM282200 VRB05KT P6SM FEW050=

USA.gov is the U.S. government's official web portal to all federal, state and local government web resources and services.